Terminal Aerodrome Forecast
Issued by NWS

Home | Current Version | Previous Version | Text Only | Print | Product List | Glossary On
Versions: 1 2 3 4 5 6 7 8 9 10 11 12 13
000
FTUS45 KREV 241100
TAFMMH
TAF
KMMH 241120Z 2412/2512 VRB03KT P6SM SCT180
     FM242000 28015G25KT P6SM SCT100 BKN180
     FM250600 26020G35KT P6SM SCT070 BKN140
      AMD NOT SKED 2412/2414=

USA.gov is the U.S. government's official web portal to all federal, state and local government web resources and services.